Pagrindinis puslapis
METAR-TAF:

METAR-TAF

Oro uostai :

Scammon Bay, Aliaska, Jungtinės Amerikos Valstijos

platuma: 61-50-43N, ilguma: 165-34-17W, Aukštis: 4 m

Dabartinis oras

Ataskaita buvo paskelbta 8 minutes, ne 18:34 UTC
Vėjas 19 kt iš Pietų/Pietryčių su gūsio iki 24 kt
Temperatūra -7°C
Drėgmė 100%
Slėgis 1004 hPa
Matomumas: 1.2 km
Išsisklaidę debesys ne aukštis 600 ft
Su prošvaistėmis ne aukštis 900 ft
Apsiniaukę ne aukštis 5500 ft
nežinomas, rūkana

METAR: PACM 161834Z AUTO 16019G24KT 3/4SM UP BR SCT006 BKN009 OVC055 M07/M07 A2965 RMK AO2 UPB15SNE15 P0000 FZRANO

Laikas: 09:42 (18:42 UTC)


TAF: trūkstamas

Orai ataskaitas ir orų prognozės (METAR, TAF).

turimą stotys yra geltonos ir raudonos taškus žemėlapyje.

Perkelti pele per norėdami pamatyti stoties vardą.

Tada spustelėkite, norėdami matyti oro stebėjimo ir prognozės.

Norėdami pakeisti žemėlapį: spustelėkite ant žalios mygtukų su juodo kryžiaus žemyn,; žalią mygtuką su brūkšneliu, jei norite nutolinti; arba žalių rodyklių gretimoms žemėlapius.


METAR-TAF: